createdAt,value
2023-05-05T00:00:37.866Z,6.55
2023-05-05T00:03:42.735Z,6.88
2023-05-05T00:06:46.373Z,7.95
2023-05-05T00:09:49.294Z,7.57
2023-05-05T00:12:52.283Z,7.73
2023-05-05T00:15:55.310Z,7.50
2023-05-05T00:18:59.021Z,6.28
2023-05-05T00:22:02.114Z,6.88
2023-05-05T00:25:05.380Z,6.65
2023-05-05T00:28:08.378Z,7.00
2023-05-05T00:31:12.270Z,5.90
2023-05-05T00:34:15.501Z,7.57
2023-05-05T00:37:18.566Z,6.82
2023-05-05T00:40:21.792Z,6.30
2023-05-05T00:43:24.758Z,6.30
2023-05-05T00:46:29.259Z,6.97
2023-05-05T00:49:33.128Z,6.75
2023-05-05T00:52:39.658Z,6.50
2023-05-05T00:55:42.708Z,7.25
2023-05-05T00:58:45.809Z,7.13
2023-05-05T01:01:49.078Z,7.53
2023-05-05T01:04:52.755Z,6.30
2023-05-05T01:08:38.247Z,7.88
2023-05-05T01:11:51.967Z,7.57
2023-05-05T01:15:21.375Z,8.20
2023-05-05T01:18:45.815Z,7.15
2023-05-05T01:21:53.804Z,8.52
2023-05-05T01:25:13.609Z,7.60
2023-05-05T01:28:23.505Z,7.28
2023-05-05T01:31:51.957Z,7.20
2023-05-05T01:35:01.410Z,7.38
2023-05-05T01:38:17.767Z,7.22
2023-05-05T01:41:25.258Z,6.80
2023-05-05T01:44:28.234Z,7.63
2023-05-05T01:47:31.271Z,7.47
2023-05-05T01:50:34.232Z,6.93
2023-05-05T01:53:37.183Z,7.53
2023-05-05T01:56:40.906Z,7.53
2023-05-05T01:59:44.103Z,6.95
2023-05-05T02:02:47.825Z,6.87
2023-05-05T02:05:51.568Z,8.57
2023-05-05T02:08:54.646Z,6.35
2023-05-05T02:12:00.653Z,6.38
2023-05-05T02:15:03.828Z,7.03
2023-05-05T02:18:07.745Z,9.07
2023-05-05T02:21:10.823Z,6.53
2023-05-05T02:24:13.830Z,7.70
2023-05-05T02:27:17.913Z,10.23
2023-05-05T02:30:20.918Z,7.32
2023-05-05T02:33:23.890Z,6.30
2023-05-05T02:36:29.195Z,6.50
2023-05-05T02:39:38.084Z,6.90
2023-05-05T02:42:47.071Z,8.70
2023-05-05T02:45:50.663Z,7.93
2023-05-05T02:48:54.856Z,7.27
2023-05-05T02:51:58.139Z,9.18
2023-05-05T02:55:04.256Z,7.05
2023-05-05T02:58:28.379Z,10.45
2023-05-05T03:01:53.380Z,6.77
2023-05-05T03:05:06.862Z,8.10
2023-05-05T03:08:17.741Z,7.95
2023-05-05T03:11:29.489Z,9.75
2023-05-05T03:14:36.562Z,8.38
2023-05-05T03:17:41.871Z,10.33
2023-05-05T03:20:45.326Z,9.33
2023-05-05T03:23:51.179Z,8.88
2023-05-05T03:26:57.695Z,10.75
2023-05-05T03:30:07.586Z,11.98
2023-05-05T03:33:14.843Z,9.47
2023-05-05T03:36:18.425Z,8.90
2023-05-05T03:39:21.917Z,12.27
2023-05-05T03:42:25.947Z,13.73
2023-05-05T03:45:29.539Z,9.98
2023-05-05T03:48:34.044Z,9.93
2023-05-05T03:51:37.458Z,9.70
2023-05-05T03:54:40.709Z,9.52
2023-05-05T03:57:45.142Z,10.07
2023-05-05T04:00:48.137Z,7.85
2023-05-05T04:03:51.924Z,12.40
2023-05-05T04:06:56.000Z,10.30
2023-05-05T04:09:59.078Z,12.90
2023-05-05T04:13:02.613Z,15.35
2023-05-05T04:16:08.793Z,10.40
2023-05-05T04:19:13.584Z,9.40
2023-05-05T04:22:17.214Z,9.33
2023-05-05T04:25:20.602Z,11.38
2023-05-05T04:28:24.934Z,9.48
2023-05-05T04:31:28.024Z,9.13
2023-05-05T04:34:31.131Z,10.50
2023-05-05T04:37:34.365Z,9.63
2023-05-05T04:40:41.360Z,12.30
2023-05-05T04:43:46.161Z,11.13
2023-05-05T04:46:50.905Z,13.40
2023-05-05T04:49:57.140Z,9.90
2023-05-05T04:53:01.400Z,9.97
2023-05-05T04:56:04.498Z,9.73
2023-05-05T04:59:08.310Z,8.32
2023-05-05T05:02:11.289Z,9.18
2023-05-05T05:05:14.332Z,9.87
2023-05-05T05:08:17.666Z,9.40
2023-05-05T05:11:22.152Z,10.23
2023-05-05T05:14:25.747Z,10.55
2023-05-05T05:17:30.470Z,8.73
2023-05-05T05:20:34.164Z,9.33
2023-05-05T05:23:37.611Z,8.67
2023-05-05T05:26:43.433Z,9.50
2023-05-05T05:29:46.618Z,9.52
2023-05-05T05:32:49.979Z,8.43
2023-05-05T05:35:53.522Z,9.27
2023-05-05T05:38:58.268Z,8.43
2023-05-05T05:42:02.854Z,10.95
2023-05-05T05:45:07.177Z,11.32
2023-05-05T05:48:10.383Z,10.02
2023-05-05T05:51:13.736Z,8.20
2023-05-05T05:54:16.960Z,12.80
2023-05-05T05:57:22.222Z,9.35
2023-05-05T06:00:26.082Z,10.40
2023-05-05T06:03:36.095Z,10.77
2023-05-05T06:06:39.539Z,11.10
2023-05-05T06:09:42.594Z,11.83
2023-05-05T06:12:46.023Z,8.32
2023-05-05T06:15:49.213Z,11.82
2023-05-05T06:18:53.041Z,9.95
2023-05-05T06:21:56.279Z,12.10
2023-05-05T06:24:59.401Z,8.47
2023-05-05T06:28:02.607Z,10.70
2023-05-05T06:31:05.817Z,10.32
2023-05-05T06:34:09.187Z,8.43
2023-05-05T06:37:15.990Z,10.77
2023-05-05T06:40:19.151Z,9.97
2023-05-05T06:43:22.149Z,9.75
2023-05-05T06:46:30.544Z,10.77
2023-05-05T06:49:33.839Z,8.35
2023-05-05T06:52:37.030Z,9.77
2023-05-05T06:55:43.171Z,6.60
2023-05-05T06:58:46.499Z,7.53
2023-05-05T07:01:49.559Z,7.60
2023-05-05T07:04:52.600Z,9.93
2023-05-05T07:07:56.124Z,8.80
2023-05-05T07:11:01.133Z,7.83
2023-05-05T07:14:04.191Z,7.78
2023-05-05T07:17:07.479Z,9.73
2023-05-05T07:20:11.069Z,10.20
2023-05-05T07:23:14.086Z,8.83
2023-05-05T07:26:17.087Z,8.57
2023-05-05T07:29:20.074Z,6.63
2023-05-05T07:32:23.109Z,6.97
2023-05-05T07:35:26.458Z,7.65
2023-05-05T07:38:29.524Z,7.43
2023-05-05T07:41:32.873Z,8.87
2023-05-05T07:44:36.030Z,9.45
2023-05-05T07:47:39.156Z,7.15
2023-05-05T07:50:42.244Z,9.25
2023-05-05T07:53:45.314Z,9.73
2023-05-05T07:56:52.541Z,10.60
2023-05-05T07:59:55.795Z,7.93
2023-05-05T08:02:58.921Z,7.97
2023-05-05T08:06:09.049Z,13.18
2023-05-05T08:09:12.097Z,9.83
2023-05-05T08:12:24.422Z,6.57
2023-05-05T08:15:30.064Z,7.65
2023-05-05T08:18:37.758Z,9.75
2023-05-05T08:21:40.721Z,9.80
2023-05-05T08:24:43.730Z,11.50
2023-05-05T08:27:46.836Z,7.53
2023-05-05T08:30:50.883Z,7.63
2023-05-05T08:33:54.363Z,8.55
2023-05-05T08:36:57.426Z,9.95
2023-05-05T08:40:00.489Z,7.80
2023-05-05T08:43:09.795Z,7.67
2023-05-05T08:46:13.463Z,8.38
2023-05-05T08:49:16.575Z,8.63
2023-05-05T08:52:22.714Z,8.20
2023-05-05T08:55:26.906Z,9.83
2023-05-05T08:58:30.679Z,7.27
2023-05-05T09:01:34.907Z,7.68
2023-05-05T09:04:43.960Z,7.63
2023-05-05T09:07:47.440Z,8.57
2023-05-05T09:10:50.808Z,10.03
2023-05-05T09:13:53.924Z,11.37
2023-05-05T09:16:56.971Z,10.30
2023-05-05T09:20:10.042Z,8.93
2023-05-05T09:23:14.375Z,9.85
2023-05-05T09:26:17.378Z,11.57
2023-05-05T09:29:21.139Z,7.77
2023-05-05T09:32:24.313Z,8.23
2023-05-05T09:35:27.574Z,8.93
2023-05-05T09:38:30.664Z,7.97
2023-05-05T09:41:44.236Z,10.00
2023-05-05T09:44:47.390Z,8.17
2023-05-05T09:47:50.620Z,7.95
2023-05-05T09:50:54.022Z,8.90
2023-05-05T09:53:56.982Z,8.82
2023-05-05T09:56:59.970Z,8.23
2023-05-05T10:00:04.493Z,8.20
2023-05-05T10:03:08.688Z,9.02
2023-05-05T10:06:11.817Z,7.38
2023-05-05T10:09:15.284Z,8.15
2023-05-05T10:12:18.245Z,7.80
2023-05-05T10:15:21.448Z,6.83
2023-05-05T10:18:26.389Z,7.72
2023-05-05T10:21:34.899Z,8.18
2023-05-05T10:24:52.955Z,8.20
2023-05-05T10:27:56.821Z,7.40
2023-05-05T10:31:09.997Z,8.43
2023-05-05T10:34:29.888Z,7.32
2023-05-05T10:37:34.179Z,7.55
2023-05-05T10:40:37.247Z,6.85
2023-05-05T10:43:40.402Z,8.23
2023-05-05T10:46:44.578Z,7.60
2023-05-05T10:50:09.084Z,8.85
2023-05-05T10:53:28.192Z,10.43
2023-05-05T10:56:32.703Z,8.07
2023-05-05T10:59:39.052Z,9.43
2023-05-05T11:02:42.167Z,8.40
2023-05-05T11:06:04.115Z,7.65
2023-05-05T11:09:28.965Z,7.53
2023-05-05T11:12:33.007Z,7.65
2023-05-05T11:15:38.023Z,8.27
2023-05-05T11:18:44.413Z,7.67
2023-05-05T11:22:07.704Z,7.20
2023-05-05T11:25:35.560Z,9.20
2023-05-05T11:28:58.507Z,8.32
2023-05-05T11:32:14.173Z,7.53
2023-05-05T11:35:17.307Z,7.40
2023-05-05T11:38:22.021Z,8.00
2023-05-05T11:41:52.465Z,8.10
2023-05-05T11:44:55.551Z,36.40
2023-05-05T11:48:27.906Z,7.60
2023-05-05T11:51:31.064Z,7.20
2023-05-05T11:54:35.543Z,8.95
2023-05-05T11:57:38.593Z,7.30
2023-05-05T12:00:41.626Z,8.50
2023-05-05T12:03:45.845Z,8.50
2023-05-05T12:06:49.217Z,9.30
2023-05-05T12:09:52.427Z,7.47
2023-05-05T12:12:56.103Z,6.97
2023-05-05T12:16:14.944Z,9.32
2023-05-05T12:19:17.887Z,8.37
2023-05-05T12:22:25.319Z,8.27
2023-05-05T12:25:36.025Z,9.23
2023-05-05T12:28:48.487Z,8.77
2023-05-05T12:31:51.636Z,8.95
2023-05-05T12:34:56.359Z,7.17
2023-05-05T12:37:59.924Z,7.20
2023-05-05T12:41:02.966Z,11.65
2023-05-05T12:44:05.976Z,10.27
2023-05-05T12:47:09.018Z,8.45
2023-05-05T12:50:12.031Z,8.40
2023-05-05T12:53:24.588Z,8.67
2023-05-05T12:56:34.411Z,7.93
2023-05-05T12:59:37.438Z,7.75
2023-05-05T13:02:40.616Z,9.00
2023-05-05T13:05:43.686Z,8.53
2023-05-05T13:08:46.694Z,7.13
2023-05-05T13:11:49.632Z,8.13
2023-05-05T13:14:52.578Z,7.72
2023-05-05T13:18:02.668Z,6.60
2023-05-05T13:21:06.029Z,8.43
2023-05-05T13:24:25.421Z,8.33
2023-05-05T13:27:31.560Z,8.75
2023-05-05T13:30:34.575Z,8.25
2023-05-05T13:33:37.533Z,9.05
2023-05-05T13:36:40.604Z,8.70
2023-05-05T13:39:43.812Z,7.40
2023-05-05T13:42:46.951Z,9.43
2023-05-05T13:45:49.950Z,7.20
2023-05-05T13:48:56.628Z,8.60
2023-05-05T13:51:59.974Z,8.73
2023-05-05T13:55:03.090Z,8.23
2023-05-05T13:58:06.325Z,8.40
2023-05-05T14:01:09.523Z,9.68
2023-05-05T14:04:12.547Z,8.15
2023-05-05T14:07:15.747Z,7.47
2023-05-05T14:10:18.662Z,5.73
2023-05-05T14:13:21.708Z,10.13
2023-05-05T14:16:27.639Z,7.40
2023-05-05T14:19:36.550Z,8.07
2023-05-05T14:22:39.500Z,9.50
2023-05-05T14:25:42.734Z,8.90
2023-05-05T14:28:48.954Z,8.70
2023-05-05T14:31:52.858Z,6.85
2023-05-05T14:34:56.421Z,7.20
2023-05-05T14:37:59.358Z,6.67
2023-05-05T14:41:02.774Z,5.90
2023-05-05T14:44:05.852Z,6.40
2023-05-05T14:47:08.821Z,7.50
2023-05-05T14:50:12.056Z,9.23
2023-05-05T14:53:15.112Z,7.80
2023-05-05T14:56:18.176Z,7.20
2023-05-05T14:59:21.134Z,8.43
2023-05-05T15:02:24.163Z,6.38
2023-05-05T15:05:27.194Z,6.03
2023-05-05T15:08:30.112Z,6.90
2023-05-05T15:11:33.309Z,5.43
2023-05-05T15:14:38.168Z,6.07
2023-05-05T15:17:41.842Z,6.85
2023-05-05T15:20:44.847Z,6.38
2023-05-05T15:23:47.799Z,5.67
2023-05-05T15:26:50.768Z,5.90
2023-05-05T15:29:54.492Z,7.28
2023-05-05T15:32:57.627Z,5.50
2023-05-05T15:36:00.633Z,6.68
2023-05-05T15:39:03.678Z,8.60
2023-05-05T15:42:06.879Z,6.23
2023-05-05T15:45:12.310Z,6.90
2023-05-05T15:48:15.352Z,6.32
2023-05-05T15:51:18.263Z,6.43
2023-05-05T15:54:21.259Z,6.97
2023-05-05T15:57:24.198Z,6.07
2023-05-05T16:00:33.204Z,7.13
2023-05-05T16:03:42.092Z,8.27
2023-05-05T16:06:46.950Z,7.55
2023-05-05T16:09:50.097Z,5.80
2023-05-05T16:12:53.160Z,7.00
2023-05-05T16:15:56.168Z,6.35
2023-05-05T16:18:59.088Z,6.25
2023-05-05T16:22:02.089Z,6.93
2023-05-05T16:25:05.456Z,7.60
2023-05-05T16:28:08.457Z,6.90
2023-05-05T16:31:11.556Z,7.78
2023-05-05T16:34:14.899Z,6.82
2023-05-05T16:37:18.272Z,7.20
2023-05-05T16:40:22.123Z,7.10
2023-05-05T16:43:25.022Z,9.00
2023-05-05T16:46:28.207Z,6.90
2023-05-05T16:49:31.344Z,6.50
2023-05-05T16:52:34.275Z,9.88
2023-05-05T16:55:37.533Z,6.37
2023-05-05T16:58:40.945Z,5.60
2023-05-05T17:01:43.904Z,6.55
2023-05-05T17:04:46.860Z,7.97
2023-05-05T17:07:49.903Z,7.38
2023-05-05T17:10:52.863Z,5.90
2023-05-05T17:13:56.379Z,5.33
2023-05-05T17:16:59.313Z,9.35
2023-05-05T17:20:05.273Z,6.40
2023-05-05T17:23:08.853Z,7.85
2023-05-05T17:26:11.746Z,9.47
2023-05-05T17:29:15.543Z,9.90
2023-05-05T17:32:18.589Z,11.07
2023-05-05T17:35:21.834Z,7.55
2023-05-05T17:38:24.898Z,11.07
2023-05-05T17:41:27.877Z,6.83
2023-05-05T17:44:32.745Z,7.27
2023-05-05T17:47:36.302Z,7.47
2023-05-05T17:50:40.289Z,8.50
2023-05-05T17:53:44.907Z,9.52
2023-05-05T17:56:47.818Z,8.20
2023-05-05T17:59:52.014Z,9.00
2023-05-05T18:02:55.041Z,6.53
2023-05-05T18:05:58.130Z,8.70
2023-05-05T18:09:01.118Z,8.82
2023-05-05T18:12:04.640Z,6.73
2023-05-05T18:15:09.140Z,7.17
2023-05-05T18:18:12.328Z,10.27
2023-05-05T18:21:15.267Z,11.45
2023-05-05T18:24:20.324Z,11.10
2023-05-05T18:27:23.723Z,10.90
2023-05-05T18:30:26.663Z,12.07
2023-05-05T18:33:29.638Z,10.82
2023-05-05T18:36:32.670Z,9.75
2023-05-05T18:39:35.701Z,11.25
2023-05-05T18:42:38.778Z,14.23
2023-05-05T18:45:41.979Z,12.27
2023-05-05T18:48:45.036Z,12.20
2023-05-05T18:51:48.038Z,14.60
2023-05-05T18:54:51.156Z,12.18
2023-05-05T18:57:54.213Z,14.07
2023-05-05T19:00:57.887Z,10.90
2023-05-05T19:04:00.993Z,10.27
2023-05-05T19:07:04.463Z,10.43
2023-05-05T19:10:08.428Z,11.23
2023-05-05T19:13:11.463Z,15.70
2023-05-05T19:16:14.497Z,13.03
2023-05-05T19:19:17.557Z,15.77
2023-05-05T19:22:23.057Z,14.35
2023-05-05T19:25:26.025Z,16.02
2023-05-05T19:28:29.273Z,11.30
2023-05-05T19:31:32.251Z,15.63
2023-05-05T19:34:37.931Z,12.98
2023-05-05T19:37:43.982Z,20.23
2023-05-05T19:40:46.997Z,13.90
2023-05-05T19:43:50.089Z,16.33
2023-05-05T19:46:53.566Z,16.57
2023-05-05T19:49:56.508Z,16.10
2023-05-05T19:52:59.547Z,12.35
2023-05-05T19:56:02.660Z,11.98
2023-05-05T19:59:06.573Z,16.23
2023-05-05T20:02:10.244Z,12.13
2023-05-05T20:05:14.988Z,14.10
2023-05-05T20:08:17.954Z,14.00
2023-05-05T20:11:21.308Z,15.57
2023-05-05T20:14:24.291Z,16.60
2023-05-05T20:17:27.396Z,17.33
2023-05-05T20:20:30.543Z,15.75
2023-05-05T20:23:33.775Z,16.27
2023-05-05T20:26:36.749Z,15.02
2023-05-05T20:29:39.676Z,14.53
2023-05-05T20:32:42.652Z,16.73
2023-05-05T20:35:45.744Z,16.67
2023-05-05T20:38:48.693Z,15.27
2023-05-05T20:41:51.639Z,16.08
2023-05-05T20:44:54.664Z,13.23
2023-05-05T20:47:58.390Z,12.00
2023-05-05T20:51:06.621Z,13.82
2023-05-05T20:54:10.238Z,13.95
2023-05-05T20:57:13.242Z,12.43
2023-05-05T21:00:16.365Z,14.10
2023-05-05T21:03:19.354Z,12.53
2023-05-05T21:06:22.306Z,11.93
2023-05-05T21:09:25.256Z,13.27
2023-05-05T21:12:29.291Z,12.70
2023-05-05T21:15:32.218Z,14.20
2023-05-05T21:18:35.184Z,12.53
2023-05-05T21:21:38.146Z,13.07
2023-05-05T21:24:41.117Z,11.50
2023-05-05T21:27:44.110Z,11.13
2023-05-05T21:30:59.403Z,11.37
2023-05-05T21:34:10.010Z,11.20
2023-05-05T21:37:13.047Z,14.15
2023-05-05T21:40:16.519Z,13.73
2023-05-05T21:43:19.474Z,17.35
2023-05-05T21:46:23.663Z,17.03
2023-05-05T21:49:26.614Z,18.03
2023-05-05T21:52:29.580Z,19.25
2023-05-05T21:55:32.524Z,17.00
2023-05-05T21:58:35.537Z,19.80
2023-05-05T22:01:38.582Z,16.70
2023-05-05T22:04:41.680Z,19.87
2023-05-05T22:07:44.598Z,13.93
2023-05-05T22:10:47.714Z,13.60
2023-05-05T22:13:50.641Z,14.40
2023-05-05T22:16:53.618Z,17.47
2023-05-05T22:19:56.568Z,19.10
2023-05-05T22:22:59.516Z,16.85
2023-05-05T22:26:02.555Z,19.80
2023-05-05T22:29:05.501Z,16.35
2023-05-05T22:32:08.590Z,15.13
2023-05-05T22:35:11.766Z,18.20
2023-05-05T22:38:14.915Z,19.25
2023-05-05T22:41:17.845Z,15.48
2023-05-05T22:44:21.073Z,12.88
2023-05-05T22:47:24.132Z,14.93
2023-05-05T22:50:27.162Z,14.67
2023-05-05T22:53:30.190Z,13.85
2023-05-05T22:56:33.210Z,11.35
2023-05-05T22:59:36.223Z,14.35
2023-05-05T23:02:39.464Z,14.47
2023-05-05T23:05:42.515Z,12.17
2023-05-05T23:08:45.681Z,16.80
2023-05-05T23:11:48.633Z,16.40
2023-05-05T23:14:52.477Z,12.93
2023-05-05T23:17:55.641Z,11.97
2023-05-05T23:20:58.604Z,12.20
2023-05-05T23:24:01.590Z,13.90
2023-05-05T23:27:04.603Z,13.43
2023-05-05T23:30:08.923Z,14.68
2023-05-05T23:33:11.927Z,14.40
2023-05-05T23:36:14.866Z,15.60
2023-05-05T23:39:17.777Z,15.38
2023-05-05T23:42:21.256Z,13.90
2023-05-05T23:45:24.206Z,15.23
2023-05-05T23:48:27.110Z,14.50
2023-05-05T23:51:31.032Z,12.53
2023-05-05T23:54:33.976Z,13.10
2023-05-05T23:57:37.026Z,17.88
